createdAt,value
2018-02-08T00:01:28.285Z,58.80
2018-02-08T00:03:55.770Z,59.10
2018-02-08T00:06:24.044Z,62.00
2018-02-08T00:08:51.530Z,73.87
2018-02-08T00:11:19.014Z,56.10
2018-02-08T00:13:46.510Z,60.60
2018-02-08T00:16:13.977Z,61.17
2018-02-08T00:18:42.234Z,59.70
2018-02-08T00:21:09.713Z,73.30
2018-02-08T00:23:37.975Z,57.43
2018-02-08T00:26:05.461Z,64.27
2018-02-08T00:28:32.938Z,68.95
2018-02-08T00:31:00.455Z,70.03
2018-02-08T00:33:27.946Z,64.93
2018-02-08T00:35:55.438Z,64.55
2018-02-08T00:38:22.941Z,72.30
2018-02-08T00:40:51.184Z,65.40
2018-02-08T00:43:18.663Z,74.00
2018-02-08T00:45:46.153Z,73.65
2018-02-08T00:48:13.659Z,69.03
2018-02-08T00:50:41.917Z,71.00
2018-02-08T00:53:09.394Z,83.82
2018-02-08T00:55:36.886Z,72.07
2018-02-08T00:58:05.126Z,71.33
2018-02-08T01:00:32.623Z,77.85
2018-02-08T01:03:00.937Z,67.20
2018-02-08T01:05:28.406Z,77.80
2018-02-08T01:07:55.878Z,55.70
2018-02-08T01:10:24.919Z,64.05
2018-02-08T01:12:53.203Z,59.00
2018-02-08T01:15:20.723Z,65.82
2018-02-08T01:17:48.202Z,65.80
2018-02-08T01:20:16.454Z,62.80
2018-02-08T01:22:43.943Z,66.10
2018-02-08T01:25:12.209Z,61.30
2018-02-08T01:27:40.458Z,64.90
2018-02-08T01:30:07.951Z,68.53
2018-02-08T01:32:36.202Z,68.82
2018-02-08T01:35:03.702Z,72.12
2018-02-08T01:37:31.201Z,65.45
2018-02-08T01:39:58.697Z,67.72
2018-02-08T01:42:26.935Z,72.93
2018-02-08T01:44:54.419Z,69.60
2018-02-08T01:47:22.108Z,62.58
2018-02-08T01:49:50.357Z,59.38
2018-02-08T01:52:17.842Z,56.97
2018-02-08T01:54:45.348Z,57.08
2018-02-08T01:57:12.834Z,61.03
2018-02-08T01:59:40.347Z,60.63
2018-02-08T02:02:07.814Z,58.67
2018-02-08T02:04:36.563Z,63.33
2018-02-08T02:07:04.810Z,66.22
2018-02-08T02:09:32.314Z,61.37
2018-02-08T02:11:59.801Z,61.55
2018-02-08T02:14:27.295Z,63.83
2018-02-08T02:16:54.778Z,57.38
2018-02-08T02:19:22.272Z,57.13
2018-02-08T02:21:49.746Z,58.87
2018-02-08T02:24:17.240Z,55.90
2018-02-08T02:26:45.487Z,62.05
2018-02-08T02:29:12.967Z,58.95
2018-02-08T02:31:41.230Z,67.20
2018-02-08T02:34:08.720Z,60.42
2018-02-08T02:36:36.955Z,66.87
2018-02-08T02:39:04.458Z,68.12
2018-02-08T02:41:32.703Z,74.75
2018-02-08T02:44:00.204Z,76.32
2018-02-08T02:46:27.699Z,72.97
2018-02-08T02:48:55.183Z,72.00
2018-02-08T02:51:22.674Z,59.17
2018-02-08T02:53:50.162Z,64.18
2018-02-08T02:56:17.642Z,54.92
2018-02-08T02:58:45.122Z,56.95
2018-02-08T03:01:13.379Z,63.90
2018-02-08T03:03:40.858Z,56.37
2018-02-08T03:06:09.116Z,59.58
2018-02-08T03:08:36.603Z,59.65
2018-02-08T03:11:04.872Z,52.45
2018-02-08T03:13:33.119Z,49.20
2018-02-08T03:16:00.618Z,54.30
2018-02-08T03:18:28.869Z,52.13
2018-02-08T03:20:56.350Z,59.72
2018-02-08T03:23:23.838Z,56.60
2018-02-08T03:25:51.330Z,56.15
2018-02-08T03:28:18.812Z,54.78
2018-02-08T03:30:47.499Z,54.83
2018-02-08T03:33:14.983Z,62.55
2018-02-08T03:35:42.482Z,62.55
2018-02-08T03:38:10.735Z,51.17
2018-02-08T03:40:38.236Z,59.67
2018-02-08T03:43:05.791Z,57.90
2018-02-08T03:45:33.287Z,51.95
2018-02-08T03:48:00.767Z,56.35
2018-02-08T03:50:28.274Z,65.40
2018-02-08T03:52:55.754Z,53.45
2018-02-08T03:55:24.010Z,56.47
2018-02-08T03:57:51.505Z,58.70
2018-02-08T04:00:18.999Z,54.03
2018-02-08T04:02:46.484Z,53.05
2018-02-08T04:05:13.979Z,63.40
2018-02-08T04:07:41.475Z,61.17
2018-02-08T04:10:08.968Z,57.38
2018-02-08T04:12:37.234Z,62.53
2018-02-08T04:15:04.752Z,58.65
2018-02-08T04:17:32.228Z,61.50
2018-02-08T04:19:59.715Z,64.20
2018-02-08T04:22:27.201Z,51.80
2018-02-08T04:24:54.694Z,49.22
2018-02-08T04:27:22.180Z,55.20
2018-02-08T04:29:49.681Z,58.17
2018-02-08T04:32:17.157Z,61.80
2018-02-08T04:34:44.642Z,62.45
2018-02-08T04:37:12.119Z,55.55
2018-02-08T04:39:52.256Z,58.78
2018-02-08T04:42:28.524Z,51.05
2018-02-08T04:45:07.988Z,53.42
2018-02-08T04:47:57.739Z,57.88
2018-02-08T04:50:25.252Z,50.75
2018-02-08T04:52:52.735Z,45.55
2018-02-08T04:55:21.012Z,51.17
2018-02-08T04:57:48.495Z,59.63
2018-02-08T05:00:15.987Z,52.65
2018-02-08T05:02:44.246Z,58.55
2018-02-08T05:05:11.723Z,52.95
2018-02-08T05:07:39.227Z,46.30
2018-02-08T05:10:06.714Z,63.38
2018-02-08T05:12:34.211Z,50.88
2018-02-08T05:15:01.699Z,52.05
2018-02-08T05:17:29.202Z,47.83
2018-02-08T05:19:57.461Z,57.35
2018-02-08T05:22:24.944Z,53.22
2018-02-08T05:24:53.197Z,71.25
2018-02-08T05:27:20.696Z,66.80
2018-02-08T05:29:48.938Z,63.85
2018-02-08T05:32:16.423Z,48.20
2018-02-08T05:34:43.911Z,54.20
2018-02-08T05:37:11.411Z,56.92
2018-02-08T05:39:38.911Z,57.92
2018-02-08T05:42:06.402Z,51.65
2018-02-08T05:44:34.687Z,51.22
2018-02-08T05:47:02.178Z,51.05
2018-02-08T05:49:30.431Z,56.25
2018-02-08T05:51:57.964Z,53.15
2018-02-08T05:54:25.419Z,48.87
2018-02-08T05:56:52.930Z,51.65
2018-02-08T05:59:21.230Z,57.55
2018-02-08T06:01:48.728Z,50.83
2018-02-08T06:04:16.211Z,53.90
2018-02-08T06:06:43.714Z,54.95
2018-02-08T06:09:11.184Z,52.30
2018-02-08T06:11:38.679Z,61.97
2018-02-08T06:14:06.147Z,49.03
2018-02-08T06:16:34.411Z,62.15
2018-02-08T06:19:01.902Z,59.50
2018-02-08T06:21:30.158Z,52.45
2018-02-08T06:23:57.929Z,54.10
2018-02-08T06:26:26.191Z,52.62
2018-02-08T06:28:53.671Z,49.10
2018-02-08T06:31:21.924Z,57.38
2018-02-08T06:33:49.409Z,49.70
2018-02-08T06:36:17.648Z,51.53
2018-02-08T06:38:45.150Z,51.05
2018-02-08T06:41:12.625Z,53.70
2018-02-08T06:43:40.121Z,56.97
2018-02-08T06:46:07.604Z,51.92
2018-02-08T06:48:35.867Z,52.75
2018-02-08T06:51:03.349Z,57.30
2018-02-08T06:53:31.614Z,56.40
2018-02-08T06:55:59.090Z,52.88
2018-02-08T06:58:26.601Z,62.70
2018-02-08T07:00:54.186Z,61.13
2018-02-08T07:03:22.454Z,53.45
2018-02-08T07:05:49.931Z,58.22
2018-02-08T07:08:18.204Z,55.38
2018-02-08T07:10:45.679Z,53.03
2018-02-08T07:13:13.179Z,50.00
2018-02-08T07:15:40.662Z,52.78
2018-02-08T07:18:08.165Z,53.17
2018-02-08T07:20:35.639Z,55.72
2018-02-08T07:23:03.119Z,52.75
2018-02-08T07:25:30.608Z,60.17
2018-02-08T07:27:58.859Z,57.75
2018-02-08T07:30:26.341Z,50.70
2018-02-08T07:32:54.599Z,50.75
2018-02-08T07:35:22.084Z,54.53
2018-02-08T07:37:50.362Z,56.63
2018-02-08T07:40:18.611Z,57.97
2018-02-08T07:42:46.113Z,59.00
2018-02-08T07:45:13.601Z,55.17
2018-02-08T07:47:41.075Z,51.95
2018-02-08T07:50:08.572Z,53.92
2018-02-08T07:52:36.823Z,48.35
2018-02-08T07:55:04.297Z,47.25
2018-02-08T07:57:32.650Z,61.95
2018-02-08T08:00:00.136Z,55.08
2018-02-08T08:02:28.444Z,55.40
2018-02-08T08:04:55.939Z,47.78
2018-02-08T08:07:23.419Z,50.63
2018-02-08T08:09:51.671Z,60.25
2018-02-08T08:12:19.154Z,60.38
2018-02-08T08:14:47.416Z,56.35
2018-02-08T08:17:14.924Z,55.70
2018-02-08T08:19:42.403Z,62.58
2018-02-08T08:22:09.916Z,57.35
2018-02-08T08:24:38.155Z,58.10
2018-02-08T08:27:05.657Z,62.53
2018-02-08T08:29:33.908Z,64.70
2018-02-08T08:32:01.399Z,58.58
2018-02-08T08:34:28.887Z,60.25
2018-02-08T08:36:56.359Z,65.22
2018-02-08T08:39:23.852Z,60.03
2018-02-08T08:41:52.103Z,58.60
2018-02-08T08:44:19.595Z,60.20
2018-02-08T08:46:47.846Z,62.13
2018-02-08T08:49:15.355Z,58.15
2018-02-08T08:51:42.835Z,58.33
2018-02-08T08:54:10.332Z,63.25
2018-02-08T08:56:38.607Z,58.87
2018-02-08T08:59:06.087Z,53.80
2018-02-08T09:01:33.656Z,57.08
2018-02-08T09:04:01.156Z,69.68
2018-02-08T09:06:54.699Z,73.40
2018-02-08T09:09:23.056Z,53.92
2018-02-08T09:11:50.566Z,50.55
2018-02-08T09:14:18.104Z,59.38
2018-02-08T09:16:45.577Z,56.75
2018-02-08T09:19:13.079Z,62.28
2018-02-08T09:21:41.341Z,61.17
2018-02-08T09:24:08.837Z,60.90
2018-02-08T09:26:36.330Z,69.93
2018-02-08T09:29:03.827Z,59.42
2018-02-08T09:31:32.084Z,67.78
2018-02-08T09:33:59.590Z,62.20
2018-02-08T09:36:27.120Z,72.00
2018-02-08T09:38:54.596Z,67.13
2018-02-08T09:41:22.080Z,59.30
2018-02-08T09:43:49.576Z,72.05
2018-02-08T09:46:17.063Z,68.90
2018-02-08T09:48:45.322Z,59.20
2018-02-08T09:51:12.795Z,71.50
2018-02-08T09:53:41.065Z,61.67
2018-02-08T09:56:09.318Z,65.80
2018-02-08T09:58:36.806Z,67.13
2018-02-08T10:01:05.072Z,55.30
2018-02-08T10:03:32.563Z,64.90
2018-02-08T10:06:00.059Z,68.70
2018-02-08T10:08:27.570Z,59.87
2018-02-08T10:10:55.809Z,68.27
2018-02-08T10:13:23.296Z,67.03
2018-02-08T10:15:51.549Z,70.10
2018-02-08T10:18:19.917Z,66.27
2018-02-08T10:20:47.399Z,67.77
2018-02-08T10:23:15.668Z,63.87
2018-02-08T10:25:43.139Z,65.33
2018-02-08T10:28:11.400Z,69.00
2018-02-08T10:30:38.891Z,71.00
2018-02-08T10:33:06.414Z,67.30
2018-02-08T10:35:33.863Z,70.20
2018-02-08T10:38:01.363Z,69.47
2018-02-08T10:40:29.604Z,71.87
2018-02-08T10:42:57.157Z,72.17
2018-02-08T10:45:24.635Z,74.33
2018-02-08T10:47:52.119Z,74.40
2018-02-08T10:50:19.600Z,67.73
2018-02-08T10:52:47.106Z,74.23
2018-02-08T10:55:14.589Z,72.23
2018-02-08T10:57:42.070Z,69.37
2018-02-08T11:00:09.584Z,67.77
2018-02-08T11:02:37.063Z,73.63
2018-02-08T11:05:05.307Z,70.47
2018-02-08T11:07:32.792Z,76.97
2018-02-08T11:10:01.039Z,63.80
2018-02-08T11:12:28.511Z,64.23
2018-02-08T11:14:56.003Z,65.03
2018-02-08T11:17:24.313Z,68.00
2018-02-08T11:19:51.907Z,67.10
2018-02-08T11:22:20.171Z,76.93
2018-02-08T11:24:47.655Z,65.27
2018-02-08T11:27:15.895Z,68.87
2018-02-08T11:29:43.386Z,69.63
2018-02-08T11:32:11.632Z,64.60
2018-02-08T11:34:39.119Z,68.70
2018-02-08T11:37:06.595Z,71.50
2018-02-08T11:39:34.093Z,76.30
2018-02-08T11:42:01.586Z,78.93
2018-02-08T11:44:29.083Z,74.60
2018-02-08T11:46:56.563Z,77.03
2018-02-08T11:49:24.044Z,70.53
2018-02-08T11:51:51.541Z,68.93
2018-02-08T11:54:19.786Z,71.17
2018-02-08T11:56:47.265Z,74.57
2018-02-08T11:59:15.515Z,68.37
2018-02-08T12:01:42.978Z,70.97
2018-02-08T12:04:10.470Z,73.63
2018-02-08T12:06:38.710Z,78.20
2018-02-08T12:09:06.203Z,71.07
2018-02-08T12:11:33.693Z,73.67
2018-02-08T12:14:01.173Z,71.47
2018-02-08T12:16:28.638Z,75.20
2018-02-08T12:18:56.143Z,81.33
2018-02-08T12:21:23.636Z,77.53
2018-02-08T12:23:51.112Z,78.93
2018-02-08T12:26:18.591Z,76.43
2018-02-08T12:28:46.106Z,73.47
2018-02-08T12:31:13.647Z,74.50
2018-02-08T12:33:41.097Z,80.27
2018-02-08T12:36:08.598Z,84.00
2018-02-08T12:38:36.070Z,84.63
2018-02-08T12:41:03.556Z,75.33
2018-02-08T12:43:31.809Z,73.50
2018-02-08T12:45:59.284Z,86.47
2018-02-08T12:48:27.543Z,80.60
2018-02-08T12:50:55.018Z,71.47
2018-02-08T12:53:23.275Z,80.17
2018-02-08T12:55:50.756Z,82.03
2018-02-08T12:58:19.019Z,80.57
2018-02-08T13:00:46.511Z,82.97
2018-02-08T13:03:14.397Z,75.13
2018-02-08T13:05:41.870Z,68.73
2018-02-08T13:08:09.348Z,78.07
2018-02-08T13:10:37.661Z,81.77
2018-02-08T13:13:05.900Z,74.30
2018-02-08T13:15:33.397Z,77.57
2018-02-08T13:18:01.651Z,73.27
2018-02-08T13:20:29.142Z,81.13
2018-02-08T13:22:56.614Z,77.03
2018-02-08T13:25:24.110Z,72.70
2018-02-08T13:27:51.580Z,71.60
2018-02-08T13:30:19.059Z,69.30
2018-02-08T13:32:47.304Z,65.80
2018-02-08T13:35:14.792Z,70.43
2018-02-08T13:37:43.032Z,70.23
2018-02-08T13:43:12.899Z,62.90
2018-02-08T13:45:41.156Z,59.83
2018-02-08T13:48:26.346Z,63.93
2018-02-08T13:50:59.436Z,56.57
2018-02-08T13:53:32.696Z,53.73
2018-02-08T13:56:01.110Z,54.33
2018-02-08T14:01:31.875Z,66.13
2018-02-08T14:04:00.139Z,59.50
2018-02-08T14:06:27.619Z,68.93
2018-02-08T14:08:55.127Z,57.57
2018-02-08T14:11:22.623Z,60.73
2018-02-08T14:13:50.860Z,47.87
2018-02-08T14:16:18.392Z,52.17
2018-02-08T14:18:45.879Z,55.13
2018-02-08T14:21:13.366Z,62.67
2018-02-08T14:23:40.843Z,60.50
2018-02-08T14:26:09.092Z,65.00
2018-02-08T14:28:36.568Z,58.97
2018-02-08T14:31:04.880Z,60.53
2018-02-08T14:33:32.362Z,66.10
2018-02-08T14:35:59.845Z,64.00
2018-02-08T14:38:27.338Z,78.50
2018-02-08T14:40:55.579Z,67.53
2018-02-08T14:43:23.067Z,68.30
2018-02-08T14:45:51.326Z,79.43
2018-02-08T14:48:18.810Z,66.50
2018-02-08T14:50:46.294Z,68.03
2018-02-08T14:53:13.770Z,75.27
2018-02-08T14:55:41.259Z,77.17
2018-02-08T14:58:08.739Z,64.53
2018-02-08T15:00:36.981Z,62.43
2018-02-08T15:03:04.836Z,63.23
2018-02-08T15:05:32.316Z,70.07
2018-02-08T15:07:59.811Z,73.10
2018-02-08T15:10:27.304Z,75.93
2018-02-08T15:12:54.758Z,78.67
2018-02-08T15:15:22.244Z,72.03
2018-02-08T15:17:49.722Z,81.93
2018-02-08T15:20:17.976Z,74.03
2018-02-08T15:22:45.450Z,82.90
2018-02-08T15:25:13.709Z,71.37
2018-02-08T15:27:41.197Z,72.63
2018-02-08T15:30:09.440Z,69.97
2018-02-08T15:32:36.915Z,75.30
2018-02-08T15:35:04.395Z,73.47
2018-02-08T15:37:31.883Z,78.27
2018-02-08T15:39:59.343Z,77.07
2018-02-08T15:42:26.897Z,68.90
2018-02-08T15:44:54.366Z,68.83
2018-02-08T15:47:22.272Z,80.33
2018-02-08T15:49:49.735Z,78.23
2018-02-08T15:52:17.992Z,82.63
2018-02-08T15:54:46.065Z,83.13
2018-02-08T15:57:13.555Z,70.67
2018-02-08T15:59:41.798Z,70.47
2018-02-08T16:02:09.289Z,72.57
2018-02-08T16:04:37.530Z,69.73
2018-02-08T16:07:05.837Z,73.03
2018-02-08T16:09:35.304Z,91.17
2018-02-08T16:12:02.822Z,83.30
2018-02-08T16:14:30.304Z,75.90
2018-02-08T16:16:57.790Z,68.10
2018-02-08T16:19:25.308Z,77.17
2018-02-08T16:21:52.797Z,79.73
2018-02-08T16:24:20.276Z,78.70
2018-02-08T16:26:47.768Z,91.73
2018-02-08T16:29:15.996Z,80.63
2018-02-08T16:31:43.488Z,73.20
2018-02-08T16:34:11.727Z,80.70
2018-02-08T16:36:39.223Z,80.20
2018-02-08T16:39:07.466Z,76.07
2018-02-08T16:41:34.961Z,73.53
2018-02-08T16:44:03.195Z,73.93
2018-02-08T16:46:30.883Z,86.07
2018-02-08T16:48:58.397Z,80.87
2018-02-08T16:51:25.937Z,77.47
2018-02-08T16:53:53.370Z,78.47
2018-02-08T16:56:21.631Z,76.97
2018-02-08T16:58:49.123Z,76.77
2018-02-08T17:01:16.613Z,86.47
2018-02-08T17:03:44.088Z,81.53
2018-02-08T17:06:11.575Z,82.97
2018-02-08T17:08:39.851Z,80.53
2018-02-08T17:11:08.123Z,82.93
2018-02-08T17:13:35.605Z,74.67
2018-02-08T17:16:03.864Z,77.23
2018-02-08T17:18:32.110Z,77.67
2018-02-08T17:20:59.645Z,78.60
2018-02-08T17:23:27.114Z,77.30
2018-02-08T17:25:54.606Z,78.33
2018-02-08T17:28:22.074Z,71.80
2018-02-08T17:30:50.339Z,71.90
2018-02-08T17:33:17.815Z,70.90
2018-02-08T17:35:46.071Z,68.33
2018-02-08T17:38:13.556Z,72.63
2018-02-08T17:40:41.831Z,70.80
2018-02-08T17:43:10.082Z,77.37
2018-02-08T17:45:37.553Z,75.70
2018-02-08T17:48:05.809Z,73.03
2018-02-08T17:50:33.275Z,78.10
2018-02-08T17:53:00.818Z,76.23
2018-02-08T17:55:28.299Z,73.13
2018-02-08T17:57:55.787Z,83.30
2018-02-08T18:00:23.268Z,71.83
2018-02-08T18:02:50.801Z,76.33
2018-02-08T18:05:19.038Z,65.03
2018-02-08T18:07:46.515Z,76.30
2018-02-08T18:10:14.756Z,63.93
2018-02-08T18:12:42.233Z,74.63
2018-02-08T18:15:09.698Z,68.63
2018-02-08T18:17:37.183Z,75.40
2018-02-08T18:20:05.430Z,75.97
2018-02-08T18:22:32.928Z,72.33
2018-02-08T18:25:00.400Z,81.30
2018-02-08T18:27:27.891Z,74.50
2018-02-08T18:29:56.130Z,72.37
2018-02-08T18:32:23.712Z,72.80
2018-02-08T18:34:51.259Z,71.37
2018-02-08T18:37:18.786Z,74.93
2018-02-08T18:39:46.231Z,72.07
2018-02-08T18:42:14.526Z,78.45
2018-02-08T18:44:42.023Z,80.20
2018-02-08T18:47:09.806Z,76.15
2018-02-08T18:49:37.283Z,75.60
2018-02-08T18:52:04.777Z,71.47
2018-02-08T18:54:32.295Z,81.23
2018-02-08T18:56:59.779Z,66.57
2018-02-08T18:59:27.321Z,83.03
2018-02-08T19:01:54.811Z,76.63
2018-02-08T19:04:22.308Z,79.87
2018-02-08T19:06:49.799Z,72.20
2018-02-08T19:09:17.280Z,73.27
2018-02-08T19:11:44.774Z,72.97
2018-02-08T19:14:12.268Z,69.95
2018-02-08T19:16:39.761Z,77.97
2018-02-08T19:19:07.238Z,60.13
2018-02-08T19:21:35.100Z,70.17
2018-02-08T19:24:02.574Z,68.57
2018-02-08T19:26:30.078Z,71.15
2018-02-08T19:28:58.348Z,71.57
2018-02-08T19:31:25.838Z,63.80
2018-02-08T19:33:53.326Z,68.20
2018-02-08T19:36:20.839Z,59.03
2018-02-08T19:38:49.092Z,63.43
2018-02-08T19:41:16.572Z,65.10
2018-02-08T19:43:44.836Z,67.07
2018-02-08T19:46:12.330Z,52.63
2018-02-08T19:48:39.840Z,65.87
2018-02-08T19:51:07.343Z,60.40
2018-02-08T19:53:34.835Z,65.10
2018-02-08T19:56:02.349Z,60.58
2018-02-08T19:58:30.626Z,62.62
2018-02-08T20:00:58.111Z,61.07
2018-02-08T20:03:25.611Z,59.70
2018-02-08T20:05:53.112Z,60.00
2018-02-08T20:08:20.611Z,64.57
2018-02-08T20:10:48.112Z,57.78
2018-02-08T20:13:16.366Z,60.80
2018-02-08T20:15:44.631Z,62.58
2018-02-08T20:18:12.128Z,66.97
2018-02-08T20:20:40.375Z,57.88
2018-02-08T20:23:07.893Z,64.18
2018-02-08T20:25:48.955Z,57.00
2018-02-08T20:28:16.451Z,53.72
2018-02-08T20:30:49.649Z,58.78
2018-02-08T20:33:17.144Z,59.70
2018-02-08T20:35:46.039Z,61.33
2018-02-08T20:38:14.308Z,59.97
2018-02-08T20:40:42.558Z,53.87
2018-02-08T20:43:15.651Z,47.78
2018-02-08T20:45:43.130Z,52.83
2018-02-08T20:48:11.397Z,57.67
2018-02-08T20:50:38.920Z,53.65
2018-02-08T20:53:06.436Z,56.97
2018-02-08T20:55:33.939Z,58.35
2018-02-08T20:58:01.462Z,60.60
2018-02-08T21:00:28.948Z,60.00
2018-02-08T21:02:56.444Z,54.42
2018-02-08T21:05:23.929Z,54.80
2018-02-08T21:07:51.423Z,57.25
2018-02-08T21:10:19.028Z,58.20
2018-02-08T21:12:46.518Z,53.53
2018-02-08T21:15:14.044Z,49.17
2018-02-08T21:17:41.539Z,56.40
2018-02-08T21:20:09.799Z,58.10
2018-02-08T21:22:38.057Z,57.08
2018-02-08T21:25:06.840Z,61.55
2018-02-08T21:27:34.336Z,56.58
2018-02-08T21:30:01.819Z,59.42
2018-02-08T21:32:29.316Z,56.50
2018-02-08T21:34:56.790Z,51.90
2018-02-08T21:37:25.051Z,47.90
2018-02-08T21:39:53.305Z,49.83
2018-02-08T21:42:20.804Z,53.33
2018-02-08T21:44:49.050Z,55.12
2018-02-08T21:47:16.547Z,47.83
2018-02-08T21:49:44.035Z,52.15
2018-02-08T21:52:11.530Z,50.60
2018-02-08T21:54:39.019Z,56.22
2018-02-08T21:57:06.507Z,49.55
2018-02-08T21:59:33.986Z,50.80
2018-02-08T22:02:01.532Z,55.10
2018-02-08T22:04:29.015Z,63.78
2018-02-08T22:06:57.044Z,58.83
2018-02-08T22:09:24.536Z,52.62
2018-02-08T22:11:52.018Z,53.53
2018-02-08T22:14:19.510Z,50.08
2018-02-08T22:16:46.986Z,52.90
2018-02-08T22:19:14.494Z,56.45
2018-02-08T22:21:41.978Z,49.33
2018-02-08T22:24:09.470Z,56.97
2018-02-08T22:26:37.047Z,49.97
2018-02-08T22:29:04.524Z,52.35
2018-02-08T22:31:32.019Z,47.60
2018-02-08T22:33:59.499Z,45.05
2018-02-08T22:36:26.989Z,51.50
2018-02-08T22:38:54.484Z,48.70
2018-02-08T22:41:21.968Z,60.35
2018-02-08T22:43:49.460Z,48.08
2018-02-08T22:46:16.951Z,52.22
2018-02-08T22:48:45.227Z,52.65
2018-02-08T22:51:13.476Z,55.28
2018-02-08T22:53:40.997Z,53.60
2018-02-08T22:56:08.485Z,58.72
2018-02-08T22:58:35.979Z,47.65
2018-02-08T23:01:04.248Z,49.15
2018-02-08T23:03:32.510Z,49.88
2018-02-08T23:05:59.999Z,51.65
2018-02-08T23:08:28.257Z,53.80
2018-02-08T23:10:56.491Z,53.63
2018-02-08T23:13:24.003Z,57.58
2018-02-08T23:15:51.458Z,57.80
2018-02-08T23:18:19.710Z,55.28
2018-02-08T23:20:47.188Z,55.88
2018-02-08T23:23:15.505Z,59.10
2018-02-08T23:25:43.006Z,50.72
2018-02-08T23:28:10.485Z,56.67
2018-02-08T23:30:37.974Z,56.17
2018-02-08T23:33:05.462Z,61.65
2018-02-08T23:35:33.435Z,51.25
2018-02-08T23:38:00.929Z,58.83
2018-02-08T23:40:29.165Z,67.37
2018-02-08T23:42:56.653Z,62.38
2018-02-08T23:45:24.918Z,55.95
2018-02-08T23:47:52.417Z,60.25
2018-02-08T23:50:19.914Z,59.40
2018-02-08T23:52:47.438Z,55.70
2018-02-08T23:55:14.954Z,53.83
2018-02-08T23:57:42.438Z,55.35
